Time;durP1;ratioP1;P1;durP2;ratioP2;P2;SDS_P1;SDS_P2;PMS_P1;PMS_P2;Temp;Humidity;BMP_temperature;BMP_pressure;BME280_temperature;BME280_humidity;BME280_pressure;Samples;Min_cycle;Max_cycle;Signal;HPM_P1;HPM_P2
2022/11/16 00:01:28;;;;;;;52.00;24.23;;;;;;;4.60;98.22;96726.88;4986175;28;20089;-56
2022/11/16 00:03:58;;;;;;;49.35;24.70;;;;;;;4.55;99.16;96724.34;4984747;28;20077;-59
2022/11/16 00:06:26;;;;;;;55.08;26.70;;;;;;;4.43;98.81;96724.34;4985733;28;20146;-56
2022/11/16 00:11:44;;;;;;;57.80;27.27;;;;;;;3.50;100.00;96632.06;4985930;28;20124;-63
2022/11/16 00:14:11;;;;;;;52.58;25.20;;;;;;;4.18;100.00;96719.91;4984672;28;20054;-57
2022/11/16 00:16:37;;;;;;;56.95;25.25;;;;;;;4.04;100.00;96719.41;4985837;28;20482;-56
2022/11/16 00:19:05;;;;;;;53.78;23.85;;;;;;;4.10;100.00;96718.06;4985953;28;20061;-58
2022/11/16 00:21:32;;;;;;;54.38;25.13;;;;;;;4.18;100.00;96708.97;4985960;28;20837;-64
2022/11/16 00:23:59;;;;;;;55.67;25.60;;;;;;;3.87;100.00;96658.50;4985825;28;20889;-56
2022/11/16 00:26:26;;;;;;;55.97;24.42;;;;;;;4.32;100.00;96703.97;4985739;28;20137;-64
2022/11/16 00:28:53;;;;;;;58.08;24.88;;;;;;;4.30;100.00;96722.69;4985800;28;20053;-64
2022/11/16 00:31:20;;;;;;;54.00;25.05;;;;;;;4.11;100.00;96692.25;4985460;28;20108;-56
2022/11/16 00:33:48;;;;;;;58.55;26.25;;;;;;;4.24;100.00;96707.59;4985689;28;20108;-64
2022/11/16 00:36:15;;;;;;;58.60;27.05;;;;;;;4.25;100.00;96698.22;4985299;28;20046;-57
2022/11/16 00:38:42;;;;;;;57.78;26.60;;;;;;;4.18;100.00;96676.06;4985266;28;20096;-56
2022/11/16 00:41:09;;;;;;;61.17;27.15;;;;;;;4.32;100.00;96698.50;4985166;28;20054;-64
2022/11/16 00:43:36;;;;;;;59.15;27.45;;;;;;;4.30;100.00;96692.53;4985505;28;20505;-59
2022/11/16 00:46:03;;;;;;;54.33;26.13;;;;;;;4.31;100.00;96688.69;4984195;28;20533;-64
2022/11/16 00:48:30;;;;;;;58.80;24.90;;;;;;;4.14;100.00;96664.16;4985086;28;20136;-58
2022/11/16 00:50:57;;;;;;;55.10;23.65;;;;;;;3.43;100.00;96577.84;4985492;28;20137;-64
2022/11/16 00:53:24;;;;;;;54.75;24.13;;;;;;;4.13;100.00;96673.53;4985362;28;20514;-56
2022/11/16 00:55:51;;;;;;;49.03;23.35;;;;;;;4.16;100.00;96667.38;4985256;28;20137;-64
2022/11/16 00:58:17;;;;;;;56.00;23.63;;;;;;;4.11;100.00;96667.59;4985313;28;20592;-56
2022/11/16 01:00:44;;;;;;;56.35;25.40;;;;;;;4.09;100.00;96656.19;4985326;28;20062;-64
2022/11/16 01:03:11;;;;;;;53.80;23.50;;;;;;;4.10;100.00;96660.50;4985257;28;20046;-56
2022/11/16 01:05:38;;;;;;;48.72;21.33;;;;;;;3.62;100.00;96569.16;4985290;28;20125;-64
2022/11/16 01:08:05;;;;;;;58.67;26.50;;;;;;;3.42;100.00;96654.84;4985022;28;20066;-57
2022/11/16 01:10:32;;;;;;;61.70;26.15;;;;;;;3.46;100.00;96631.16;4985145;28;20116;-57
2022/11/16 01:12:59;;;;;;;65.00;29.00;;;;;;;3.68;100.00;96656.25;4989366;28;20417;-56
2022/11/16 01:15:27;;;;;;;73.13;31.05;;;;;;;3.12;100.00;96552.88;4987696;28;20506;-57
2022/11/16 01:17:54;;;;;;;74.72;30.73;;;;;;;3.77;100.00;96648.75;4988966;28;20058;-63
2022/11/16 01:20:24;;;;;;;64.15;29.15;;;;;;;3.80;100.00;96642.59;4987193;28;20054;-65
2022/11/16 01:22:51;;;;;;;68.07;29.92;;;;;;;3.72;100.00;96624.31;4989383;28;20109;-64
2022/11/16 01:25:19;;;;;;;66.10;28.80;;;;;;;3.86;100.00;96646.72;4988551;28;20137;-65
2022/11/16 01:27:46;;;;;;;60.17;25.88;;;;;;;3.88;100.00;96633.50;4989146;28;20136;-64
2022/11/16 01:30:15;;;;;;;55.25;24.40;;;;;;;3.86;100.00;96632.22;4987299;28;20597;-57
2022/11/16 01:32:42;;;;;;;55.50;25.10;;;;;;;3.96;100.00;96624.41;4987449;28;20074;-64
2022/11/16 01:35:14;;;;;;;55.83;25.15;;;;;;;3.58;100.00;96582.72;4988292;28;20063;-56
2022/11/16 01:37:41;;;;;;;50.20;23.42;;;;;;;4.01;100.00;96621.44;4988938;28;20116;-64
2022/11/16 01:40:08;;;;;;;49.45;23.08;;;;;;;3.22;100.00;96505.94;4988768;28;20100;-58
2022/11/16 01:42:35;;;;;;;52.17;23.70;;;;;;;3.87;100.00;96609.19;4989004;28;20058;-64
2022/11/16 01:45:05;;;;;;;55.10;24.02;;;;;;;3.84;100.00;96616.13;4987539;28;20058;-64
2022/11/16 01:47:32;;;;;;;54.03;22.52;;;;;;;3.78;100.00;96622.16;4987062;28;20093;-64
2022/11/16 01:50:10;;;;;;;53.40;23.25;;;;;;;3.86;100.00;96616.59;4988879;28;20173;-64
2022/11/16 01:52:43;;;;;;;53.63;24.23;;;;;;;3.71;100.00;96600.81;4989107;28;20141;-63
2022/11/16 01:55:10;;;;;;;53.15;22.38;;;;;;;3.79;100.00;96605.41;4988537;28;20050;-64
2022/11/16 01:57:41;;;;;;;56.95;23.17;;;;;;;3.85;100.00;96605.97;4988793;28;20050;-63
2022/11/16 02:00:11;;;;;;;54.70;23.85;;;;;;;3.15;100.00;96486.53;4988718;28;20129;-59
2022/11/16 02:02:37;;;;;;;55.17;23.73;;;;;;;3.80;100.00;96598.78;4988458;28;20141;-62
2022/11/16 02:05:05;;;;;;;57.85;25.60;;;;;;;3.88;100.00;96600.63;4987929;28;20104;-64
2022/11/16 02:11:20;;;;;;;57.55;23.95;;;;;;;3.92;100.00;96593.31;4988193;28;20062;-56
2022/11/16 02:14:31;;;;;;;54.45;24.65;;;;;;;3.87;100.00;96596.25;4976436;28;20595;-63
2022/11/16 02:17:20;;;;;;;53.45;22.30;;;;;;;3.95;100.00;96595.38;4986250;28;20054;-64
2022/11/16 02:20:18;;;;;;;54.53;23.30;;;;;;;3.58;100.00;96529.88;4988010;28;20054;-56
2022/11/16 02:22:51;;;;;;;58.47;24.67;;;;;;;3.86;100.00;96597.41;4987260;28;20058;-63
2022/11/16 02:25:29;;;;;;;58.97;25.92;;;;;;;3.70;100.00;96599.19;4987941;28;20054;-63
2022/11/16 02:28:13;;;;;;;58.67;28.13;;;;;;;3.64;100.00;96595.06;4988215;28;20430;-58
2022/11/16 02:30:46;;;;;;;59.80;25.13;;;;;;;3.05;100.00;96519.78;4986684;28;20054;-64
2022/11/16 02:33:18;;;;;;;65.25;27.13;;;;;;;3.51;100.00;96573.47;4986593;28;20137;-56
2022/11/16 02:35:55;;;;;;;61.93;26.83;;;;;;;3.27;100.00;96516.69;4987338;28;20518;-63
2022/11/16 02:38:34;;;;;;;56.95;23.60;;;;;;;3.64;100.00;96566.88;4987287;28;20305;-63
2022/11/16 02:41:07;;;;;;;53.08;23.83;;;;;;;3.45;100.00;96526.31;4986225;28;20050;-64
2022/11/16 02:43:41;;;;;;;58.90;23.90;;;;;;;3.48;100.00;96530.34;4986288;28;20537;-56
2022/11/16 02:46:15;;;;;;;55.33;24.08;;;;;;;3.73;100.00;96598.50;4987551;28;20058;-64
2022/11/16 02:48:48;;;;;;;49.67;22.10;;;;;;;3.24;100.00;96492.72;4987742;28;20611;-64
2022/11/16 02:51:17;;;;;;;53.25;23.02;;;;;;;3.68;100.00;96565.88;4987495;28;20152;-58
2022/11/16 02:54:07;;;;;;;54.95;24.67;;;;;;;3.83;100.00;96558.94;4986181;28;20088;-56
2022/11/16 02:57:01;;;;;;;55.78;23.67;;;;;;;3.57;100.00;96495.44;4987183;28;20058;-56
2022/11/16 02:59:35;;;;;;;64.28;28.35;;;;;;;4.19;100.00;96576.25;4985802;28;20137;-60
2022/11/16 03:02:19;;;;;;;53.05;22.67;;;;;;;3.32;100.00;96535.63;4987505;28;20058;-59
2022/11/16 03:04:50;;;;;;;56.08;22.35;;;;;;;2.89;100.00;96562.56;4987276;28;20058;-59
2022/11/16 03:07:22;;;;;;;57.53;22.63;;;;;;;2.75;100.00;96572.94;4986902;28;20149;-63
2022/11/16 03:09:50;;;;;;;53.38;21.60;;;;;;;2.61;100.00;96577.81;4987048;28;20057;-56
2022/11/16 03:12:24;;;;;;;56.92;22.83;;;;;;;2.03;100.00;96518.53;4987428;28;20058;-63
2022/11/16 03:14:58;;;;;;;65.93;25.77;;;;;;;2.46;100.00;96560.09;4987122;28;20120;-56
2022/11/16 03:17:29;;;;;;;59.05;23.60;;;;;;;2.87;100.00;96564.81;4987117;28;20077;-56
2022/11/16 03:20:11;;;;;;;67.38;24.42;;;;;;;3.16;100.00;96564.75;4985744;28;20061;-63
2022/11/16 03:22:45;;;;;;;50.50;23.45;;;;;;;3.44;100.00;96554.84;4986969;28;20101;-63
2022/11/16 03:25:15;;;;;;;53.03;23.00;;;;;;;3.63;100.00;96554.31;4985443;28;20133;-64
2022/11/16 03:27:41;;;;;;;58.35;25.48;;;;;;;3.70;100.00;96544.41;4986588;28;20113;-59
2022/11/16 03:30:23;;;;;;;60.70;25.83;;;;;;;3.78;100.00;96532.56;4986747;28;20132;-62
2022/11/16 03:33:07;;;;;;;54.15;22.63;;;;;;;3.93;100.00;96542.88;4986860;28;20058;-59
2022/11/16 03:35:45;;;;;;;51.72;24.48;;;;;;;3.87;100.00;96516.81;4985555;28;20054;-64
2022/11/16 03:38:14;;;;;;;51.92;23.05;;;;;;;3.95;100.00;96518.66;4986357;28;20081;-64
2022/11/16 03:40:44;;;;;;;52.40;22.70;;;;;;;3.82;100.00;96530.75;4986379;28;20086;-56
2022/11/16 03:43:12;;;;;;;52.80;24.48;;;;;;;3.44;100.00;96532.94;4986570;28;20116;-57
2022/11/16 03:45:39;;;;;;;54.33;23.60;;;;;;;3.41;100.00;96533.63;4986567;28;20193;-56
2022/11/16 03:48:06;;;;;;;56.65;24.58;;;;;;;3.31;100.00;96484.75;4985089;28;20058;-57
2022/11/16 03:50:33;;;;;;;54.05;23.10;;;;;;;3.69;100.00;96526.41;4984773;28;20054;-59
2022/11/16 03:53:00;;;;;;;55.22;24.60;;;;;;;3.86;100.00;96517.97;4986535;28;20042;-64
2022/11/16 03:55:26;;;;;;;59.38;24.55;;;;;;;3.89;100.00;96511.81;4986853;28;20129;-64
2022/11/16 03:57:53;;;;;;;61.13;26.73;;;;;;;3.81;100.00;96507.22;4986887;28;20157;-64
2022/11/16 04:00:19;;;;;;;59.88;26.38;;;;;;;3.64;100.00;96480.06;4986616;28;20096;-64
2022/11/16 04:02:46;;;;;;;58.55;24.50;;;;;;;4.03;100.00;96508.75;4985311;28;20050;-65
2022/11/16 04:24:39;;;;;;;62.22;26.95;;;;;;;4.52;100.00;96467.25;4985974;28;20595;-64
2022/11/16 04:29:56;;;;;;;57.80;27.95;;;;;;;4.69;100.00;96494.44;4985989;28;20402;-64
2022/11/16 04:37:55;;;;;;;49.00;22.42;;;;;;;4.60;100.00;96460.84;4985585;28;20469;-64
2022/11/16 04:40:26;;;;;;;45.00;20.70;;;;;;;4.84;100.00;96478.41;4985794;28;20050;-57
2022/11/16 04:42:55;;;;;;;48.78;21.83;;;;;;;4.87;100.00;96477.72;4985910;28;20058;-56
2022/11/16 04:48:08;;;;;;;79.07;30.40;;;;;;;4.76;100.00;96474.63;4985469;28;20138;-64
2022/11/16 04:50:35;;;;;;;79.68;30.95;;;;;;;4.70;100.00;96459.56;4985433;28;20153;-64
2022/11/16 04:53:04;;;;;;;95.75;35.60;;;;;;;4.41;100.00;96394.84;4985264;28;20051;-63
2022/11/16 04:55:31;;;;;;;84.88;31.60;;;;;;;4.92;99.88;96475.50;4985309;28;20402;-56
2022/11/16 04:57:58;;;;;;;95.18;35.50;;;;;;;4.33;98.37;96387.56;4985603;28;20592;-57
2022/11/16 05:00:25;;;;;;;93.80;34.05;;;;;;;3.97;100.00;96450.63;4985163;28;20113;-59
2022/11/16 05:02:52;;;;;;;96.38;37.35;;;;;;;4.29;100.00;96451.66;4984224;28;20559;-56
2022/11/16 05:05:26;;;;;;;89.78;32.70;;;;;;;3.88;100.00;96452.69;4983719;28;20056;-64
2022/11/16 05:07:52;;;;;;;69.85;29.55;;;;;;;3.80;100.00;96418.00;4983795;28;20295;-64
2022/11/16 05:10:19;;;;;;;73.85;29.75;;;;;;;4.20;100.00;96454.53;4983754;28;20073;-63
2022/11/16 05:12:46;;;;;;;83.47;34.92;;;;;;;4.15;100.00;96443.81;4985576;28;20101;-56
2022/11/16 05:15:12;;;;;;;88.07;35.35;;;;;;;4.32;100.00;96461.94;4985213;28;20054;-59
2022/11/16 05:17:39;;;;;;;65.63;32.78;;;;;;;4.41;100.00;96454.41;4985633;28;20146;-56
2022/11/16 05:22:53;;;;;;;75.00;32.35;;;;;;;4.53;100.00;96468.06;4985469;28;20162;-64
2022/11/16 05:25:20;;;;;;;65.85;30.73;;;;;;;4.28;100.00;96423.44;4984821;28;20090;-57
2022/11/16 05:27:47;;;;;;;72.38;31.58;;;;;;;4.68;100.00;96481.88;4985256;28;20054;-58
2022/11/16 05:30:14;;;;;;;64.65;27.55;;;;;;;4.72;100.00;96481.16;4984705;28;20700;-63
2022/11/16 05:32:41;;;;;;;64.80;28.20;;;;;;;4.59;99.16;96472.97;4985276;28;20050;-56
2022/11/16 05:35:07;;;;;;;69.97;27.85;;;;;;;4.40;99.73;96470.03;4984447;28;20081;-56
2022/11/16 05:37:34;;;;;;;58.95;25.15;;;;;;;4.25;99.74;96467.97;4985117;28;20149;-64
2022/11/16 05:40:00;;;;;;;64.20;26.58;;;;;;;4.20;99.35;96465.50;4982278;28;20120;-56
2022/11/16 05:42:27;;;;;;;68.63;28.48;;;;;;;4.24;99.40;96462.84;4969158;28;20130;-64
2022/11/16 05:44:54;;;;;;;59.97;28.67;;;;;;;3.95;100.00;96400.88;4963877;28;20055;-58
2022/11/16 05:47:20;;;;;;;67.07;30.38;;;;;;;4.33;100.00;96447.88;4965477;28;20086;-65
2022/11/16 05:49:47;;;;;;;67.95;28.92;;;;;;;4.35;100.00;96456.56;4965709;28;20513;-66
2022/11/16 05:52:14;;;;;;;86.13;32.67;;;;;;;4.34;100.00;96454.97;4965053;28;20190;-57
2022/11/16 05:54:40;;;;;;;67.03;28.85;;;;;;;3.68;100.00;96464.56;4965703;28;20050;-64
2022/11/16 05:57:07;;;;;;;70.47;28.15;;;;;;;3.72;100.00;96459.97;4966160;28;20082;-65
2022/11/16 05:59:34;;;;;;;67.22;30.45;;;;;;;4.03;100.00;96468.44;4969171;28;20081;-64
2022/11/16 06:02:02;;;;;;;70.10;29.85;;;;;;;4.18;100.00;96473.25;4968688;28;20565;-56
2022/11/16 06:04:29;;;;;;;72.95;28.95;;;;;;;4.14;100.00;96466.06;4968812;28;20142;-66
2022/11/16 06:06:55;;;;;;;69.97;29.65;;;;;;;4.06;100.00;96470.50;4982087;28;20133;-65
2022/11/16 06:09:22;;;;;;;75.43;29.00;;;;;;;4.21;100.00;96469.81;4988645;28;20422;-65
2022/11/16 06:11:49;;;;;;;67.13;26.30;;;;;;;4.24;100.00;96471.88;4988609;28;21237;-55
2022/11/16 06:14:15;;;;;;;64.85;28.05;;;;;;;4.12;100.00;96479.31;4988204;28;20054;-57
2022/11/16 06:16:42;;;;;;;63.97;28.00;;;;;;;3.75;100.00;96404.53;4988508;28;20813;-56
2022/11/16 06:19:09;;;;;;;61.15;26.48;;;;;;;3.68;100.00;96381.59;4987729;28;20116;-57
2022/11/16 06:21:35;;;;;;;65.68;27.83;;;;;;;4.30;100.00;96461.50;4988095;28;20129;-56
2022/11/16 06:24:07;;;;;;;61.72;27.30;;;;;;;4.36;100.00;96463.63;4986853;28;20054;-65
2022/11/16 06:26:35;;;;;;;65.88;27.85;;;;;;;3.68;100.00;96420.75;4987844;28;20149;-64
2022/11/16 06:29:01;;;;;;;68.72;26.30;;;;;;;3.92;100.00;96456.34;4987754;28;20154;-56
2022/11/16 06:31:29;;;;;;;80.35;36.80;;;;;;;3.90;100.00;96406.59;4987553;28;20100;-59
2022/11/16 06:33:55;;;;;;;66.88;32.03;;;;;;;4.32;100.00;96438.06;4986279;28;20089;-58
2022/11/16 06:36:22;;;;;;;65.78;31.45;;;;;;;4.57;100.00;96458.00;4985918;28;20137;-66
2022/11/16 06:38:49;;;;;;;62.15;29.70;;;;;;;4.54;100.00;96407.41;4973064;28;20054;-61
2022/11/16 06:41:16;;;;;;;63.55;31.60;;;;;;;4.68;100.00;96374.91;4985263;28;20476;-52
2022/11/16 06:43:43;;;;;;;58.47;28.38;;;;;;;4.59;100.00;96324.88;5000022;28;20050;-65
2022/11/16 06:46:09;;;;;;;72.28;30.42;;;;;;;5.08;98.95;96445.38;4987312;28;20104;-53
2022/11/16 06:48:36;;;;;;;68.70;31.65;;;;;;;4.48;100.00;96400.56;4981045;28;20055;-63
2022/11/16 06:51:03;;;;;;;64.53;32.33;;;;;;;4.88;100.00;96364.88;4973491;28;20054;-65
2022/11/16 06:53:29;;;;;;;63.20;31.83;;;;;;;5.67;100.00;96433.28;4967850;28;20130;-62
2022/11/16 06:56:15;;;;;;;59.40;29.27;;;;;;;5.94;98.77;96434.38;4971821;28;20049;-55
2022/11/16 06:58:41;;;;;;;55.65;28.27;;;;;;;5.91;98.21;96424.09;4985420;28;20081;-63
2022/11/16 07:01:10;;;;;;;60.70;29.02;;;;;;;6.13;99.64;96420.72;4985114;28;20160;-54
2022/11/16 07:03:37;;;;;;;54.28;27.65;;;;;;;6.34;96.59;96410.19;4977208;28;20501;-56
2022/11/16 07:06:09;;;;;;;51.40;25.70;;;;;;;6.68;96.35;96408.59;4980127;28;20055;-62
2022/11/16 07:08:36;;;;;;;53.22;26.90;;;;;;;6.76;93.95;96386.38;4967518;28;20549;-61
2022/11/16 07:11:05;;;;;;;54.42;26.27;;;;;;;6.96;95.03;96400.91;4966828;28;20063;-61
2022/11/16 07:13:33;;;;;;;54.38;26.27;;;;;;;7.05;94.25;96352.72;4982112;28;20050;-64
2022/11/16 07:16:01;;;;;;;53.83;27.80;;;;;;;7.75;92.67;96408.34;4986874;28;20061;-53
2022/11/16 07:18:28;;;;;;;55.47;29.02;;;;;;;7.62;91.14;96366.38;4982229;28;20101;-55
2022/11/16 07:20:55;;;;;;;52.25;28.08;;;;;;;8.07;88.36;96390.38;4972741;28;20079;-63
2022/11/16 07:23:21;;;;;;;54.10;27.90;;;;;;;8.32;88.17;96410.09;4981343;28;20133;-54
2022/11/16 07:25:48;;;;;;;48.95;26.30;;;;;;;8.24;87.40;96369.75;4968128;28;20506;-65
2022/11/16 07:28:14;;;;;;;48.95;26.52;;;;;;;8.57;87.61;96392.72;4966945;28;20162;-55
2022/11/16 07:30:43;;;;;;;54.85;29.27;;;;;;;8.95;87.21;96416.50;4967824;28;20109;-61
2022/11/16 07:33:10;;;;;;;55.97;29.88;;;;;;;9.07;85.47;96402.47;4981450;28;20121;-62
2022/11/16 07:35:36;;;;;;;57.65;28.10;;;;;;;8.95;84.88;96362.06;4966913;28;20133;-53
2022/11/16 07:38:03;;;;;;;58.35;29.00;;;;;;;9.44;84.29;96395.00;4966342;28;20066;-64
2022/11/16 07:40:29;;;;;;;62.50;31.42;;;;;;;8.83;84.24;96265.69;4967057;28;20050;-57
2022/11/16 07:42:57;;;;;;;68.25;31.42;;;;;;;9.32;84.17;96319.84;4977146;28;20136;-66
2022/11/16 07:45:24;;;;;;;58.42;31.55;;;;;;;9.84;83.40;96386.72;4966884;28;20124;-65
2022/11/16 07:47:52;;;;;;;57.25;30.90;;;;;;;9.31;83.95;96313.50;4966661;28;20083;-67
2022/11/16 07:50:18;;;;;;;56.85;30.75;;;;;;;9.80;84.36;96365.72;4978872;28;20051;-64
2022/11/16 07:52:45;;;;;;;64.10;32.25;;;;;;;10.22;83.93;96389.03;4984872;28;20461;-56
2022/11/16 07:55:12;;;;;;;65.07;33.80;;;;;;;10.39;82.50;96391.16;4972435;28;20086;-55
2022/11/16 07:57:39;;;;;;;59.00;32.42;;;;;;;10.51;81.66;96387.28;4968780;28;20050;-55
2022/11/16 08:00:07;;;;;;;59.13;32.88;;;;;;;10.68;81.21;96381.03;4967384;28;20058;-68
2022/11/16 08:02:33;;;;;;;59.03;32.28;;;;;;;10.76;80.59;96376.34;4974910;28;20133;-57
2022/11/16 08:05:00;;;;;;;61.67;33.65;;;;;;;10.86;80.36;96376.38;4978195;28;20177;-62
2022/11/16 08:07:27;;;;;;;69.10;35.15;;;;;;;10.49;80.74;96357.19;4986231;28;20046;-54
2022/11/16 08:09:54;;;;;;;70.50;35.65;;;;;;;10.37;81.10;96349.19;4982670;28;20058;-54
2022/11/16 08:12:20;;;;;;;64.07;35.58;;;;;;;10.45;81.92;96347.25;4986106;28;20136;-55
2022/11/16 08:14:47;;;;;;;67.78;36.45;;;;;;;10.81;80.50;96362.91;4980866;28;20042;-59
2022/11/16 08:17:14;;;;;;;67.20;34.33;;;;;;;10.80;80.00;96327.28;4974592;28;20549;-62
2022/11/16 08:19:41;;;;;;;65.93;35.45;;;;;;;10.38;81.93;96314.81;4966412;28;20137;-54
2022/11/16 08:22:08;;;;;;;60.28;33.85;;;;;;;10.27;82.95;96299.31;4972241;28;20054;-55
2022/11/16 08:24:34;;;;;;;67.38;33.28;;;;;;;10.59;83.45;96356.44;4966604;28;20110;-56
2022/11/16 08:27:01;;;;;;;64.03;35.17;;;;;;;9.75;82.44;96223.09;4966450;28;20452;-56
2022/11/16 08:29:28;;;;;;;63.13;33.85;;;;;;;9.39;81.76;96088.53;4966164;28;20498;-57
2022/11/16 08:31:55;;;;;;;61.67;33.03;;;;;;;11.51;80.48;96345.72;4964711;28;20054;-65
2022/11/16 08:34:21;;;;;;;62.72;33.60;;;;;;;11.63;79.25;96342.63;4982013;28;20500;-57
2022/11/16 08:36:48;;;;;;;47.55;28.40;;;;;;;11.97;76.88;96341.06;4985232;28;20213;-56
2022/11/16 08:39:16;;;;;;;55.47;31.25;;;;;;;11.70;76.47;96289.91;4983127;28;20062;-62
2022/11/16 08:41:43;;;;;;;54.95;29.13;;;;;;;11.81;77.50;96401.69;4981074;28;20050;-59
2022/11/16 08:44:10;;;;;;;51.00;29.85;;;;;;;11.55;77.80;96291.88;4975075;28;20172;-62
2022/11/16 08:46:36;;;;;;;52.38;30.20;;;;;;;12.28;76.52;96329.16;4982112;28;20058;-61
2022/11/16 08:49:03;;;;;;;59.70;34.33;;;;;;;12.06;75.30;96297.84;4982917;28;20129;-57
2022/11/16 08:51:30;;;;;;;53.38;31.13;;;;;;;12.47;76.11;96322.38;4981930;28;20137;-61
2022/11/16 08:54:14;;;;;;;46.22;26.90;;;;;;;12.82;74.91;96325.06;4965638;28;20164;-65
2022/11/16 08:56:40;;;;;;;44.38;26.23;;;;;;;12.18;72.99;96228.03;4966056;28;20101;-58
2022/11/16 08:59:07;;;;;;;50.25;27.88;;;;;;;12.85;73.50;96313.91;4983080;28;20149;-54
2022/11/16 09:01:33;;;;;;;56.70;29.67;;;;;;;12.21;74.46;96218.09;4985385;28;20137;-60
2022/11/16 09:04:00;;;;;;;48.28;28.45;;;;;;;13.09;73.17;96307.50;4980519;28;20054;-55
2022/11/16 09:06:27;;;;;;;49.20;28.38;;;;;;;13.32;72.68;96302.22;4985155;28;20426;-55
2022/11/16 09:08:55;;;;;;;38.47;24.77;;;;;;;13.03;70.87;96231.28;4985075;28;20062;-61
2022/11/16 09:11:23;;;;;;;45.15;26.65;;;;;;;13.22;71.87;96277.25;4981799;28;20054;-63
2022/11/16 09:13:51;;;;;;;40.08;23.73;;;;;;;13.49;70.17;96295.75;4973266;28;20620;-63
2022/11/16 09:16:35;;;;;;;69.25;46.97;;;;;;;13.73;70.50;96290.41;4982678;28;20497;-55
2022/11/16 09:19:02;;;;;;;49.78;28.02;;;;;;;13.39;68.83;96215.13;4983814;28;20132;-56
2022/11/16 09:21:29;;;;;;;43.15;26.15;;;;;;;13.86;68.61;96295.09;4985073;28;20129;-64
2022/11/16 09:23:56;;;;;;;44.00;26.85;;;;;;;13.94;68.39;96282.69;4985113;28;20082;-64
2022/11/16 09:26:24;;;;;;;45.78;26.77;;;;;;;13.68;69.13;96249.91;4985343;28;20085;-66
2022/11/16 09:28:59;;;;;;;36.88;22.67;;;;;;;13.55;68.43;96274.66;4984905;28;20136;-58
2022/11/16 09:31:27;;;;;;;40.45;24.42;;;;;;;13.83;68.88;96267.28;4986292;28;20057;-65
2022/11/16 09:33:57;;;;;;;38.95;24.75;;;;;;;14.11;67.40;96248.34;4988725;28;20149;-65
2022/11/16 09:36:26;;;;;;;40.30;25.50;;;;;;;14.41;67.47;96258.81;4988503;28;20502;-63
2022/11/16 09:38:53;;;;;;;36.28;22.20;;;;;;;14.48;65.43;96253.16;4988532;28;20054;-65
2022/11/16 09:42:17;;;;;;;37.70;23.40;;;;;;;14.66;65.00;96248.19;4983041;28;20077;-56
2022/11/16 09:44:47;;;;;;;35.88;22.45;;;;;;;14.20;65.29;96242.28;4988165;28;20287;-65
2022/11/16 09:47:20;;;;;;;35.90;22.05;;;;;;;14.18;66.81;96244.69;4983755;28;20154;-61
2022/11/16 09:49:54;;;;;;;35.67;22.02;;;;;;;14.37;66.12;96199.56;4979423;28;20190;-64
2022/11/16 09:52:35;;;;;;;33.85;22.65;;;;;;;14.91;64.21;96223.56;4969113;28;20054;-64
2022/11/16 09:55:17;;;;;;;35.63;21.42;;;;;;;14.81;63.52;96207.78;4970039;28;20138;-62
2022/11/16 09:57:46;;;;;;;32.80;21.58;;;;;;;15.05;63.79;96220.59;4980103;28;20464;-55
2022/11/16 10:00:18;;;;;;;31.58;20.08;;;;;;;15.33;61.87;96209.03;4979555;28;20433;-57
2022/11/16 10:02:59;;;;;;;26.27;17.48;;;;;;;15.54;60.95;96200.34;4979276;28;20501;-56
2022/11/16 10:05:28;;;;;;;26.95;19.35;;;;;;;15.57;61.14;96202.28;4986183;28;20092;-62
2022/11/16 10:08:08;;;;;;;31.42;20.75;;;;;;;15.52;61.18;96196.41;4988075;28;20121;-66
2022/11/16 10:10:35;;;;;;;27.73;18.75;;;;;;;15.59;60.65;96191.50;4988251;28;20054;-54
2022/11/16 10:13:13;;;;;;;30.85;19.85;;;;;;;15.64;61.25;96185.44;4987502;28;20563;-54
2022/11/16 10:16:09;;;;;;;30.85;19.88;;;;;;;15.72;60.19;96181.31;4970694;28;20129;-60
2022/11/16 10:19:23;;;;;;;30.65;19.90;;;;;;;15.85;60.41;96173.91;4970026;28;20427;-68
2022/11/16 10:22:47;;;;;;;30.48;20.23;;;;;;;16.02;61.06;96167.22;4985047;28;20066;-68
2022/11/16 10:25:36;;;;;;;29.25;18.63;;;;;;;16.20;58.63;96159.28;4974576;28;20090;-57
2022/11/16 10:28:03;;;;;;;34.63;20.02;;;;;;;16.32;58.74;96158.66;4968583;28;20528;-57
2022/11/16 10:30:39;;;;;;;27.83;18.33;;;;;;;16.05;58.00;96084.56;4968045;28;20090;-58
2022/11/16 10:33:11;;;;;;;24.05;17.17;;;;;;;16.41;58.02;96130.13;4973462;28;20054;-57
2022/11/16 10:35:48;;;;;;;29.00;18.33;;;;;;;16.64;57.00;96142.03;4987840;28;20481;-68
2022/11/16 10:38:23;;;;;;;27.70;18.40;;;;;;;16.59;57.58;96127.78;4987846;28;20141;-69
2022/11/16 10:41:17;;;;;;;24.50;17.73;;;;;;;16.43;57.23;96142.47;4987863;28;20081;-66
2022/11/16 10:43:45;;;;;;;32.05;19.45;;;;;;;16.12;58.70;96149.44;4986552;28;20090;-59
2022/11/16 10:46:30;;;;;;;26.67;17.33;;;;;;;15.94;58.54;96098.72;4982827;28;20581;-57
2022/11/16 10:49:11;;;;;;;26.45;18.00;;;;;;;16.50;58.15;96131.16;4985069;28;20443;-64
2022/11/16 10:51:38;;;;;;;27.60;18.13;;;;;;;16.69;58.07;96120.41;4982602;28;20113;-57
2022/11/16 10:54:15;;;;;;;25.00;17.20;;;;;;;17.03;57.28;96123.63;4981067;28;20108;-59
2022/11/16 10:56:45;;;;;;;24.15;15.98;;;;;;;17.19;55.99;96116.03;4985727;28;20109;-62
2022/11/16 10:59:33;;;;;;;31.55;21.88;;;;;;;17.44;55.13;96115.44;4983750;28;20054;-71
2022/11/16 11:02:19;;;;;;;25.05;17.30;;;;;;;17.36;54.80;96066.44;4980760;28;20493;-70
2022/11/16 11:05:07;;;;;;;27.13;18.20;;;;;;;17.67;54.64;96090.09;4967701;28;20046;-59
2022/11/16 11:07:38;;;;;;;25.33;17.27;;;;;;;17.83;54.15;96092.88;4966286;28;20058;-58
2022/11/16 11:10:26;;;;;;;23.58;16.65;;;;;;;17.64;53.81;96088.16;4978488;28;20046;-59
2022/11/16 11:13:25;;;;;;;29.38;18.80;;;;;;;17.66;54.67;96082.91;4973817;28;20246;-60
2022/11/16 11:16:12;;;;;;;26.98;17.52;;;;;;;17.60;54.26;96063.06;5011215;28;20101;-56
2022/11/16 11:18:39;;;;;;;23.85;16.95;;;;;;;17.42;54.05;96017.13;4982742;28;20182;-56
2022/11/16 11:21:12;;;;;;;24.38;17.23;;;;;;;17.85;54.08;96090.41;4965824;28;20133;-56
2022/11/16 11:23:50;;;;;;;25.38;16.45;;;;;;;17.11;54.93;96069.06;4984632;28;20149;-69
2022/11/16 11:26:29;;;;;;;27.70;17.90;;;;;;;17.39;55.37;96062.75;4986527;28;20576;-57
2022/11/16 11:29:21;;;;;;;25.70;16.83;;;;;;;17.64;54.79;96058.13;4981632;28;20085;-57
2022/11/16 11:31:51;;;;;;;26.63;18.92;;;;;;;17.38;54.40;95994.00;4980578;28;20120;-60
2022/11/16 11:34:22;;;;;;;28.50;19.42;;;;;;;17.28;54.48;95981.88;4984351;28;20133;-57
2022/11/16 11:36:56;;;;;;;30.73;18.33;;;;;;;17.37;54.48;96054.03;4986480;28;20188;-55
2022/11/16 11:39:23;;;;;;;26.20;19.00;;;;;;;17.15;55.23;96050.19;4986625;28;20832;-56
2022/11/16 11:42:12;;;;;;;;;;;;;;;17.42;54.71;96053.50;4986952;28;20057;-71
2022/11/16 11:44:48;;;;;;;26.95;17.98;;;;;;;17.60;54.38;96056.66;4984157;28;19925;-57
2022/11/16 11:47:21;;;;;;;23.55;16.67;;;;;;;17.54;54.06;96058.41;4986322;28;20069;-71
2022/11/16 11:50:44;;;;;;;29.45;18.27;;;;;;;17.08;54.13;96036.38;4981689;28;20062;-64
2022/11/16 11:53:23;;;;;;;25.40;17.48;;;;;;;17.31;54.83;96050.19;4964735;28;20117;-65
2022/11/16 11:55:56;;;;;;;31.50;19.55;;;;;;;17.26;54.81;96064.72;4982522;28;20082;-65
2022/11/16 11:58:32;;;;;;;29.02;18.63;;;;;;;16.04;56.29;95969.25;4975507;28;20054;-64
2022/11/16 12:01:17;;;;;;;31.88;19.40;;;;;;;16.97;56.09;96058.22;4984895;28;20118;-64
2022/11/16 12:04:12;;;;;;;29.23;18.77;;;;;;;17.15;55.00;96048.16;4968258;28;20077;-59
2022/11/16 12:07:14;;;;;;;23.20;16.67;;;;;;;17.24;54.88;96039.97;4967252;28;20098;-68
2022/11/16 12:09:59;;;;;;;30.85;18.80;;;;;;;17.24;55.38;96044.75;4959639;28;20054;-57
2022/11/16 12:12:50;;;;;;;22.13;16.83;;;;;;;17.40;54.85;96036.34;4983878;28;20505;-69
2022/11/16 12:15:34;;;;;;;21.45;15.43;;;;;;;16.51;54.58;95908.31;4985487;28;20078;-57
2022/11/16 12:18:42;;;;;;;21.27;16.02;;;;;;;17.55;54.07;96037.59;4979326;28;20054;-66
2022/11/16 12:21:18;;;;;;;22.48;14.95;;;;;;;17.33;53.50;96031.72;4974711;28;20140;-59